sensor_id;sensor_type;location;lat;lon;timestamp;P1;durP1;ratioP1;P2;durP2;ratioP2
58553;SDS011;48119;53.218;6.576;2023-08-01T00:00:02;17.33;;;5.60;;
58553;SDS011;48119;53.218;6.576;2023-08-01T00:02:30;11.70;;;5.13;;
58553;SDS011;48119;53.218;6.576;2023-08-01T00:04:58;17.20;;;5.82;;
58553;SDS011;48119;53.218;6.576;2023-08-01T00:07:27;11.38;;;4.70;;
58553;SDS011;48119;53.218;6.576;2023-08-01T00:09:53;14.20;;;4.85;;
58553;SDS011;48119;53.218;6.576;2023-08-01T00:12:19;10.82;;;4.97;;
58553;SDS011;48119;53.218;6.576;2023-08-01T00:14:45;14.80;;;5.25;;
58553;SDS011;48119;53.218;6.576;2023-08-01T00:17:10;11.48;;;5.18;;
58553;SDS011;48119;53.218;6.576;2023-08-01T00:19:36;11.02;;;4.85;;
58553;SDS011;48119;53.218;6.576;2023-08-01T00:22:02;14.10;;;4.95;;
58553;SDS011;48119;53.218;6.576;2023-08-01T00:24:28;13.57;;;4.85;;
58553;SDS011;48119;53.218;6.576;2023-08-01T00:26:54;11.20;;;4.80;;
58553;SDS011;48119;53.218;6.576;2023-08-01T00:29:21;8.20;;;4.40;;
58553;SDS011;48119;53.218;6.576;2023-08-01T00:31:47;11.93;;;4.60;;
58553;SDS011;48119;53.218;6.576;2023-08-01T00:34:13;9.68;;;4.13;;
58553;SDS011;48119;53.218;6.576;2023-08-01T00:36:39;17.10;;;4.82;;
58553;SDS011;48119;53.218;6.576;2023-08-01T00:39:04;12.85;;;4.90;;
58553;SDS011;48119;53.218;6.576;2023-08-01T00:41:30;9.10;;;4.65;;
58553;SDS011;48119;53.218;6.576;2023-08-01T00:43:56;14.02;;;4.20;;
58553;SDS011;48119;53.218;6.576;2023-08-01T00:46:21;13.43;;;3.80;;
58553;SDS011;48119;53.218;6.576;2023-08-01T00:48:50;9.63;;;4.10;;
58553;SDS011;48119;53.218;6.576;2023-08-01T00:51:16;8.77;;;4.43;;
58553;SDS011;48119;53.218;6.576;2023-08-01T00:53:43;16.90;;;5.05;;
58553;SDS011;48119;53.218;6.576;2023-08-01T00:56:11;10.18;;;4.55;;
58553;SDS011;48119;53.218;6.576;2023-08-01T00:58:37;11.13;;;4.53;;
58553;SDS011;48119;53.218;6.576;2023-08-01T01:01:03;9.50;;;4.15;;
58553;SDS011;48119;53.218;6.576;2023-08-01T01:03:29;9.45;;;4.38;;
58553;SDS011;48119;53.218;6.576;2023-08-01T01:08:43;10.52;;;3.80;;
58553;SDS011;48119;53.218;6.576;2023-08-01T01:11:09;10.85;;;3.72;;
58553;SDS011;48119;53.218;6.576;2023-08-01T01:13:35;10.20;;;3.72;;
58553;SDS011;48119;53.218;6.576;2023-08-01T01:16:01;8.27;;;3.95;;
58553;SDS011;48119;53.218;6.576;2023-08-01T01:18:27;7.35;;;3.78;;
58553;SDS011;48119;53.218;6.576;2023-08-01T01:20:52;8.75;;;4.00;;
58553;SDS011;48119;53.218;6.576;2023-08-01T01:23:18;9.23;;;4.20;;
58553;SDS011;48119;53.218;6.576;2023-08-01T01:25:45;8.18;;;4.32;;
58553;SDS011;48119;53.218;6.576;2023-08-01T01:28:13;7.75;;;3.88;;
58553;SDS011;48119;53.218;6.576;2023-08-01T01:30:41;8.98;;;3.85;;
58553;SDS011;48119;53.218;6.576;2023-08-01T01:33:08;12.07;;;4.45;;
58553;SDS011;48119;53.218;6.576;2023-08-01T01:35:35;8.95;;;3.70;;
58553;SDS011;48119;53.218;6.576;2023-08-01T01:38:01;11.20;;;3.97;;
58553;SDS011;48119;53.218;6.576;2023-08-01T01:40:31;12.35;;;4.30;;
58553;SDS011;48119;53.218;6.576;2023-08-01T01:42:58;8.75;;;3.95;;
58553;SDS011;48119;53.218;6.576;2023-08-01T01:45:24;6.68;;;3.97;;
58553;SDS011;48119;53.218;6.576;2023-08-01T01:47:50;8.13;;;3.72;;
58553;SDS011;48119;53.218;6.576;2023-08-01T01:50:16;7.38;;;3.92;;
58553;SDS011;48119;53.218;6.576;2023-08-01T01:52:43;6.32;;;3.38;;
58553;SDS011;48119;53.218;6.576;2023-08-01T01:55:09;8.07;;;4.13;;
58553;SDS011;48119;53.218;6.576;2023-08-01T01:57:35;10.85;;;4.05;;
58553;SDS011;48119;53.218;6.576;2023-08-01T02:00:02;10.63;;;3.95;;
58553;SDS011;48119;53.218;6.576;2023-08-01T02:02:29;9.73;;;4.03;;
58553;SDS011;48119;53.218;6.576;2023-08-01T02:04:55;9.23;;;3.83;;
58553;SDS011;48119;53.218;6.576;2023-08-01T02:07:20;7.85;;;3.88;;
58553;SDS011;48119;53.218;6.576;2023-08-01T02:09:46;12.85;;;3.80;;
58553;SDS011;48119;53.218;6.576;2023-08-01T02:12:12;11.00;;;3.92;;
58553;SDS011;48119;53.218;6.576;2023-08-01T02:14:40;9.25;;;3.80;;
58553;SDS011;48119;53.218;6.576;2023-08-01T02:17:06;9.48;;;3.35;;
58553;SDS011;48119;53.218;6.576;2023-08-01T02:19:32;13.02;;;4.30;;
58553;SDS011;48119;53.218;6.576;2023-08-01T02:21:58;12.60;;;3.97;;
58553;SDS011;48119;53.218;6.576;2023-08-01T02:24:24;9.13;;;3.53;;
58553;SDS011;48119;53.218;6.576;2023-08-01T02:26:50;6.47;;;3.55;;
58553;SDS011;48119;53.218;6.576;2023-08-01T02:29:16;8.57;;;3.80;;
58553;SDS011;48119;53.218;6.576;2023-08-01T02:31:42;9.40;;;3.55;;
58553;SDS011;48119;53.218;6.576;2023-08-01T02:34:08;7.50;;;3.30;;
58553;SDS011;48119;53.218;6.576;2023-08-01T02:36:33;7.20;;;3.70;;
58553;SDS011;48119;53.218;6.576;2023-08-01T02:38:59;9.40;;;3.60;;
58553;SDS011;48119;53.218;6.576;2023-08-01T02:41:25;7.68;;;3.45;;
58553;SDS011;48119;53.218;6.576;2023-08-01T02:43:53;9.68;;;3.30;;
58553;SDS011;48119;53.218;6.576;2023-08-01T02:46:19;10.05;;;3.70;;
58553;SDS011;48119;53.218;6.576;2023-08-01T02:48:48;6.78;;;3.25;;
58553;SDS011;48119;53.218;6.576;2023-08-01T02:51:13;7.07;;;3.58;;
58553;SDS011;48119;53.218;6.576;2023-08-01T02:53:39;9.20;;;2.92;;
58553;SDS011;48119;53.218;6.576;2023-08-01T02:56:06;13.25;;;3.33;;
58553;SDS011;48119;53.218;6.576;2023-08-01T02:58:34;6.32;;;3.13;;
58553;SDS011;48119;53.218;6.576;2023-08-01T03:00:59;6.82;;;3.30;;
58553;SDS011;48119;53.218;6.576;2023-08-01T03:03:26;8.65;;;3.78;;
58553;SDS011;48119;53.218;6.576;2023-08-01T03:05:52;9.07;;;3.97;;
58553;SDS011;48119;53.218;6.576;2023-08-01T03:08:18;12.25;;;3.88;;
58553;SDS011;48119;53.218;6.576;2023-08-01T03:10:44;11.95;;;4.05;;
58553;SDS011;48119;53.218;6.576;2023-08-01T03:13:10;6.78;;;3.70;;
58553;SDS011;48119;53.218;6.576;2023-08-01T03:15:38;8.48;;;3.88;;
58553;SDS011;48119;53.218;6.576;2023-08-01T03:18:04;8.68;;;4.28;;
58553;SDS011;48119;53.218;6.576;2023-08-01T03:20:30;8.43;;;3.67;;
58553;SDS011;48119;53.218;6.576;2023-08-01T03:22:56;10.15;;;3.97;;
58553;SDS011;48119;53.218;6.576;2023-08-01T03:25:22;11.02;;;4.68;;
58553;SDS011;48119;53.218;6.576;2023-08-01T03:27:47;8.35;;;4.30;;
58553;SDS011;48119;53.218;6.576;2023-08-01T03:30:18;9.38;;;4.15;;
58553;SDS011;48119;53.218;6.576;2023-08-01T03:32:45;7.22;;;4.00;;
58553;SDS011;48119;53.218;6.576;2023-08-01T03:35:12;13.18;;;4.15;;
58553;SDS011;48119;53.218;6.576;2023-08-01T03:37:39;8.65;;;4.65;;
58553;SDS011;48119;53.218;6.576;2023-08-01T03:40:05;8.57;;;4.10;;
58553;SDS011;48119;53.218;6.576;2023-08-01T03:42:34;9.68;;;4.50;;
58553;SDS011;48119;53.218;6.576;2023-08-01T03:45:00;9.18;;;4.57;;
58553;SDS011;48119;53.218;6.576;2023-08-01T03:47:26;11.57;;;4.22;;
58553;SDS011;48119;53.218;6.576;2023-08-01T03:49:51;14.98;;;5.03;;
58553;SDS011;48119;53.218;6.576;2023-08-01T03:52:17;8.18;;;3.97;;
58553;SDS011;48119;53.218;6.576;2023-08-01T03:54:44;10.48;;;3.85;;
58553;SDS011;48119;53.218;6.576;2023-08-01T03:57:09;9.10;;;4.15;;
58553;SDS011;48119;53.218;6.576;2023-08-01T03:59:35;12.05;;;4.35;;
58553;SDS011;48119;53.218;6.576;2023-08-01T04:02:04;9.18;;;3.75;;
58553;SDS011;48119;53.218;6.576;2023-08-01T04:04:29;6.10;;;3.50;;
58553;SDS011;48119;53.218;6.576;2023-08-01T04:06:56;7.30;;;3.03;;
58553;SDS011;48119;53.218;6.576;2023-08-01T04:09:22;6.25;;;3.75;;
58553;SDS011;48119;53.218;6.576;2023-08-01T04:11:48;12.63;;;3.20;;
58553;SDS011;48119;53.218;6.576;2023-08-01T04:14:14;8.02;;;3.78;;
58553;SDS011;48119;53.218;6.576;2023-08-01T04:16:39;5.68;;;3.35;;
58553;SDS011;48119;53.218;6.576;2023-08-01T04:19:05;5.43;;;2.85;;
58553;SDS011;48119;53.218;6.576;2023-08-01T04:21:31;7.18;;;2.50;;
58553;SDS011;48119;53.218;6.576;2023-08-01T04:23:56;7.05;;;2.85;;
58553;SDS011;48119;53.218;6.576;2023-08-01T04:26:22;4.55;;;2.88;;
58553;SDS011;48119;53.218;6.576;2023-08-01T04:28:48;9.10;;;2.72;;
58553;SDS011;48119;53.218;6.576;2023-08-01T04:31:14;8.65;;;3.47;;
58553;SDS011;48119;53.218;6.576;2023-08-01T04:33:40;9.95;;;3.05;;
58553;SDS011;48119;53.218;6.576;2023-08-01T04:36:06;6.82;;;2.47;;
58553;SDS011;48119;53.218;6.576;2023-08-01T04:38:31;9.10;;;2.70;;
58553;SDS011;48119;53.218;6.576;2023-08-01T04:40:57;6.55;;;2.72;;
58553;SDS011;48119;53.218;6.576;2023-08-01T04:43:23;7.35;;;2.25;;
58553;SDS011;48119;53.218;6.576;2023-08-01T04:45:49;5.22;;;2.63;;
58553;SDS011;48119;53.218;6.576;2023-08-01T04:48:14;5.00;;;2.22;;
58553;SDS011;48119;53.218;6.576;2023-08-01T04:50:40;7.28;;;2.55;;
58553;SDS011;48119;53.218;6.576;2023-08-01T04:53:06;6.60;;;2.55;;
58553;SDS011;48119;53.218;6.576;2023-08-01T04:55:32;7.03;;;2.45;;
58553;SDS011;48119;53.218;6.576;2023-08-01T04:57:57;5.43;;;2.65;;
58553;SDS011;48119;53.218;6.576;2023-08-01T05:00:23;6.28;;;2.15;;
58553;SDS011;48119;53.218;6.576;2023-08-01T05:02:49;7.25;;;2.25;;
58553;SDS011;48119;53.218;6.576;2023-08-01T05:05:15;5.30;;;2.75;;
58553;SDS011;48119;53.218;6.576;2023-08-01T05:07:41;8.30;;;2.95;;
58553;SDS011;48119;53.218;6.576;2023-08-01T05:10:07;7.38;;;2.60;;
58553;SDS011;48119;53.218;6.576;2023-08-01T05:12:36;9.55;;;3.28;;
58553;SDS011;48119;53.218;6.576;2023-08-01T05:15:02;7.53;;;2.92;;
58553;SDS011;48119;53.218;6.576;2023-08-01T05:17:28;10.13;;;2.50;;
58553;SDS011;48119;53.218;6.576;2023-08-01T05:19:54;5.82;;;1.80;;
58553;SDS011;48119;53.218;6.576;2023-08-01T05:22:20;8.77;;;2.53;;
58553;SDS011;48119;53.218;6.576;2023-08-01T05:24:46;5.50;;;2.53;;
58553;SDS011;48119;53.218;6.576;2023-08-01T05:27:12;6.13;;;2.38;;
58553;SDS011;48119;53.218;6.576;2023-08-01T05:29:38;9.45;;;2.42;;
58553;SDS011;48119;53.218;6.576;2023-08-01T05:32:03;7.63;;;2.10;;
58553;SDS011;48119;53.218;6.576;2023-08-01T05:34:32;5.75;;;2.00;;
58553;SDS011;48119;53.218;6.576;2023-08-01T05:36:58;8.48;;;1.88;;
58553;SDS011;48119;53.218;6.576;2023-08-01T05:39:23;7.80;;;2.13;;
58553;SDS011;48119;53.218;6.576;2023-08-01T05:41:49;5.90;;;1.88;;
58553;SDS011;48119;53.218;6.576;2023-08-01T05:44:15;7.20;;;1.98;;
58553;SDS011;48119;53.218;6.576;2023-08-01T05:46:41;6.60;;;2.72;;
58553;SDS011;48119;53.218;6.576;2023-08-01T05:49:07;3.72;;;1.58;;
58553;SDS011;48119;53.218;6.576;2023-08-01T05:51:33;7.70;;;2.63;;
58553;SDS011;48119;53.218;6.576;2023-08-01T05:53:58;7.53;;;2.42;;
58553;SDS011;48119;53.218;6.576;2023-08-01T05:56:24;6.03;;;2.25;;
58553;SDS011;48119;53.218;6.576;2023-08-01T05:58:53;3.95;;;1.80;;
58553;SDS011;48119;53.218;6.576;2023-08-01T06:01:19;5.10;;;2.13;;
58553;SDS011;48119;53.218;6.576;2023-08-01T06:03:44;7.88;;;2.10;;
58553;SDS011;48119;53.218;6.576;2023-08-01T06:06:10;3.70;;;2.35;;
58553;SDS011;48119;53.218;6.576;2023-08-01T06:08:36;7.35;;;2.50;;
58553;SDS011;48119;53.218;6.576;2023-08-01T06:11:01;4.80;;;2.38;;
58553;SDS011;48119;53.218;6.576;2023-08-01T06:13:27;5.78;;;2.15;;
58553;SDS011;48119;53.218;6.576;2023-08-01T06:15:53;7.88;;;2.38;;
58553;SDS011;48119;53.218;6.576;2023-08-01T06:18:19;4.00;;;2.00;;
58553;SDS011;48119;53.218;6.576;2023-08-01T06:20:44;4.95;;;2.10;;
58553;SDS011;48119;53.218;6.576;2023-08-01T06:23:10;5.57;;;2.00;;
58553;SDS011;48119;53.218;6.576;2023-08-01T06:25:36;7.72;;;2.65;;
58553;SDS011;48119;53.218;6.576;2023-08-01T06:28:01;7.35;;;2.10;;
58553;SDS011;48119;53.218;6.576;2023-08-01T06:30:27;8.10;;;2.03;;
58553;SDS011;48119;53.218;6.576;2023-08-01T06:32:53;6.30;;;2.25;;
58553;SDS011;48119;53.218;6.576;2023-08-01T06:35:19;3.47;;;1.92;;
58553;SDS011;48119;53.218;6.576;2023-08-01T06:37:46;5.00;;;2.25;;
58553;SDS011;48119;53.218;6.576;2023-08-01T06:40:12;5.60;;;2.00;;
58553;SDS011;48119;53.218;6.576;2023-08-01T06:42:37;3.03;;;1.70;;
58553;SDS011;48119;53.218;6.576;2023-08-01T06:45:03;3.85;;;1.65;;
58553;SDS011;48119;53.218;6.576;2023-08-01T06:47:30;5.28;;;1.60;;
58553;SDS011;48119;53.218;6.576;2023-08-01T06:49:55;5.07;;;2.08;;
58553;SDS011;48119;53.218;6.576;2023-08-01T06:52:24;5.43;;;1.98;;
58553;SDS011;48119;53.218;6.576;2023-08-01T06:54:49;4.15;;;1.85;;
58553;SDS011;48119;53.218;6.576;2023-08-01T06:57:15;3.78;;;2.03;;
58553;SDS011;48119;53.218;6.576;2023-08-01T06:59:43;3.92;;;2.25;;
58553;SDS011;48119;53.218;6.576;2023-08-01T07:02:09;5.32;;;1.67;;
58553;SDS011;48119;53.218;6.576;2023-08-01T07:04:36;5.63;;;1.80;;
58553;SDS011;48119;53.218;6.576;2023-08-01T07:07:03;3.60;;;1.80;;
58553;SDS011;48119;53.218;6.576;2023-08-01T07:09:29;3.53;;;1.38;;
58553;SDS011;48119;53.218;6.576;2023-08-01T07:11:54;5.13;;;2.00;;
58553;SDS011;48119;53.218;6.576;2023-08-01T07:14:20;6.00;;;2.05;;
58553;SDS011;48119;53.218;6.576;2023-08-01T07:16:46;11.50;;;2.47;;
58553;SDS011;48119;53.218;6.576;2023-08-01T07:19:12;7.00;;;2.20;;
58553;SDS011;48119;53.218;6.576;2023-08-01T07:21:37;3.72;;;2.15;;
58553;SDS011;48119;53.218;6.576;2023-08-01T07:24:04;3.83;;;1.42;;
58553;SDS011;48119;53.218;6.576;2023-08-01T07:26:30;3.30;;;1.48;;
58553;SDS011;48119;53.218;6.576;2023-08-01T07:28:56;6.78;;;1.73;;
58553;SDS011;48119;53.218;6.576;2023-08-01T07:31:22;3.00;;;1.20;;
58553;SDS011;48119;53.218;6.576;2023-08-01T07:33:50;5.80;;;1.70;;
58553;SDS011;48119;53.218;6.576;2023-08-01T07:36:15;5.72;;;2.38;;
58553;SDS011;48119;53.218;6.576;2023-08-01T07:38:41;3.38;;;1.50;;
58553;SDS011;48119;53.218;6.576;2023-08-01T07:41:07;10.57;;;1.92;;
58553;SDS011;48119;53.218;6.576;2023-08-01T07:43:33;5.88;;;1.90;;
58553;SDS011;48119;53.218;6.576;2023-08-01T07:46:02;5.97;;;2.00;;
58553;SDS011;48119;53.218;6.576;2023-08-01T07:48:28;7.60;;;1.80;;
58553;SDS011;48119;53.218;6.576;2023-08-01T07:50:53;5.63;;;2.05;;
58553;SDS011;48119;53.218;6.576;2023-08-01T07:53:19;9.35;;;2.75;;
58553;SDS011;48119;53.218;6.576;2023-08-01T07:55:45;7.78;;;2.13;;
58553;SDS011;48119;53.218;6.576;2023-08-01T07:58:11;7.30;;;2.72;;
58553;SDS011;48119;53.218;6.576;2023-08-01T08:00:37;5.25;;;1.80;;
58553;SDS011;48119;53.218;6.576;2023-08-01T08:03:02;6.70;;;2.15;;
58553;SDS011;48119;53.218;6.576;2023-08-01T08:05:30;8.27;;;2.58;;
58553;SDS011;48119;53.218;6.576;2023-08-01T08:07:56;3.67;;;1.50;;
58553;SDS011;48119;53.218;6.576;2023-08-01T08:10:22;6.32;;;1.60;;
58553;SDS011;48119;53.218;6.576;2023-08-01T08:12:50;8.68;;;2.55;;
58553;SDS011;48119;53.218;6.576;2023-08-01T08:15:16;5.28;;;1.65;;
58553;SDS011;48119;53.218;6.576;2023-08-01T08:17:42;7.65;;;1.88;;
58553;SDS011;48119;53.218;6.576;2023-08-01T08:20:08;5.13;;;2.20;;
58553;SDS011;48119;53.218;6.576;2023-08-01T08:22:34;3.25;;;1.70;;
58553;SDS011;48119;53.218;6.576;2023-08-01T08:25:00;2.75;;;1.45;;
58553;SDS011;48119;53.218;6.576;2023-08-01T08:27:25;5.32;;;1.65;;
58553;SDS011;48119;53.218;6.576;2023-08-01T08:29:51;5.50;;;2.13;;
58553;SDS011;48119;53.218;6.576;2023-08-01T08:32:17;6.75;;;3.15;;
58553;SDS011;48119;53.218;6.576;2023-08-01T08:34:43;3.85;;;1.83;;
58553;SDS011;48119;53.218;6.576;2023-08-01T08:37:09;7.28;;;2.72;;
58553;SDS011;48119;53.218;6.576;2023-08-01T08:39:37;7.35;;;2.72;;
58553;SDS011;48119;53.218;6.576;2023-08-01T08:42:02;5.43;;;1.83;;
58553;SDS011;48119;53.218;6.576;2023-08-01T08:44:30;5.53;;;2.45;;
58553;SDS011;48119;53.218;6.576;2023-08-01T08:47:01;11.02;;;2.97;;
58553;SDS011;48119;53.218;6.576;2023-08-01T08:49:29;5.43;;;2.30;;
58553;SDS011;48119;53.218;6.576;2023-08-01T08:51:56;5.10;;;1.95;;
58553;SDS011;48119;53.218;6.576;2023-08-01T08:54:22;6.82;;;1.95;;
58553;SDS011;48119;53.218;6.576;2023-08-01T08:56:48;6.47;;;2.95;;
58553;SDS011;48119;53.218;6.576;2023-08-01T08:59:14;9.38;;;1.92;;
58553;SDS011;48119;53.218;6.576;2023-08-01T09:01:40;7.60;;;2.55;;
58553;SDS011;48119;53.218;6.576;2023-08-01T09:04:06;7.18;;;1.77;;
58553;SDS011;48119;53.218;6.576;2023-08-01T09:06:40;6.55;;;1.92;;
58553;SDS011;48119;53.218;6.576;2023-08-01T09:09:10;5.63;;;1.60;;
58553;SDS011;48119;53.218;6.576;2023-08-01T09:11:42;3.95;;;1.40;;
58553;SDS011;48119;53.218;6.576;2023-08-01T09:14:10;4.32;;;1.60;;
58553;SDS011;48119;53.218;6.576;2023-08-01T09:16:36;5.13;;;1.70;;
58553;SDS011;48119;53.218;6.576;2023-08-01T09:19:02;3.70;;;2.00;;
58553;SDS011;48119;53.218;6.576;2023-08-01T09:21:31;5.38;;;2.45;;
58553;SDS011;48119;53.218;6.576;2023-08-01T09:24:07;4.60;;;1.85;;
58553;SDS011;48119;53.218;6.576;2023-08-01T09:26:40;7.60;;;2.70;;
58553;SDS011;48119;53.218;6.576;2023-08-01T09:29:06;4.47;;;1.48;;
58553;SDS011;48119;53.218;6.576;2023-08-01T09:31:33;4.75;;;2.22;;
58553;SDS011;48119;53.218;6.576;2023-08-01T09:34:17;4.80;;;1.75;;
58553;SDS011;48119;53.218;6.576;2023-08-01T09:36:47;3.85;;;1.73;;
58553;SDS011;48119;53.218;6.576;2023-08-01T09:39:18;6.00;;;1.67;;
58553;SDS011;48119;53.218;6.576;2023-08-01T09:41:45;7.43;;;1.92;;
58553;SDS011;48119;53.218;6.576;2023-08-01T09:44:16;5.15;;;1.52;;
58553;SDS011;48119;53.218;6.576;2023-08-01T09:46:54;4.03;;;1.48;;
58553;SDS011;48119;53.218;6.576;2023-08-01T09:49:22;2.90;;;1.13;;
58553;SDS011;48119;53.218;6.576;2023-08-01T09:51:51;4.18;;;1.48;;
58553;SDS011;48119;53.218;6.576;2023-08-01T09:54:17;4.53;;;1.30;;
58553;SDS011;48119;53.218;6.576;2023-08-01T09:56:44;4.50;;;2.10;;
58553;SDS011;48119;53.218;6.576;2023-08-01T09:59:11;4.10;;;1.45;;
58553;SDS011;48119;53.218;6.576;2023-08-01T10:01:38;3.63;;;1.48;;
58553;SDS011;48119;53.218;6.576;2023-08-01T10:04:06;5.70;;;1.80;;
58553;SDS011;48119;53.218;6.576;2023-08-01T10:06:34;6.53;;;2.03;;
58553;SDS011;48119;53.218;6.576;2023-08-01T10:09:02;11.05;;;1.77;;
58553;SDS011;48119;53.218;6.576;2023-08-01T10:11:30;7.70;;;1.98;;
58553;SDS011;48119;53.218;6.576;2023-08-01T10:14:02;5.05;;;1.67;;
58553;SDS011;48119;53.218;6.576;2023-08-01T10:16:28;5.70;;;1.88;;
58553;SDS011;48119;53.218;6.576;2023-08-01T10:18:55;7.10;;;1.80;;
58553;SDS011;48119;53.218;6.576;2023-08-01T10:21:23;6.47;;;2.58;;
58553;SDS011;48119;53.218;6.576;2023-08-01T10:23:52;4.85;;;2.20;;
58553;SDS011;48119;53.218;6.576;2023-08-01T10:26:19;8.82;;;1.88;;
58553;SDS011;48119;53.218;6.576;2023-08-01T10:28:49;8.98;;;2.10;;
58553;SDS011;48119;53.218;6.576;2023-08-01T10:31:17;4.88;;;1.60;;
58553;SDS011;48119;53.218;6.576;2023-08-01T10:33:49;12.20;;;2.35;;
58553;SDS011;48119;53.218;6.576;2023-08-01T10:36:19;3.97;;;1.60;;
58553;SDS011;48119;53.218;6.576;2023-08-01T10:41:18;5.25;;;1.52;;
58553;SDS011;48119;53.218;6.576;2023-08-01T10:43:50;7.07;;;1.77;;
58553;SDS011;48119;53.218;6.576;2023-08-01T10:46:16;13.48;;;2.42;;
58553;SDS011;48119;53.218;6.576;2023-08-01T10:48:49;4.95;;;1.98;;
58553;SDS011;48119;53.218;6.576;2023-08-01T10:51:15;7.40;;;1.95;;
58553;SDS011;48119;53.218;6.576;2023-08-01T10:53:41;3.78;;;1.50;;
58553;SDS011;48119;53.218;6.576;2023-08-01T10:56:07;3.50;;;1.60;;
58553;SDS011;48119;53.218;6.576;2023-08-01T10:58:34;8.38;;;1.92;;
58553;SDS011;48119;53.218;6.576;2023-08-01T11:01:03;5.25;;;1.63;;
58553;SDS011;48119;53.218;6.576;2023-08-01T11:03:35;6.80;;;2.17;;
58553;SDS011;48119;53.218;6.576;2023-08-01T11:06:01;6.65;;;2.30;;
58553;SDS011;48119;53.218;6.576;2023-08-01T11:08:41;4.10;;;1.77;;
58553;SDS011;48119;53.218;6.576;2023-08-01T11:11:12;8.30;;;1.80;;
58553;SDS011;48119;53.218;6.576;2023-08-01T11:13:39;7.00;;;2.28;;
58553;SDS011;48119;53.218;6.576;2023-08-01T11:16:08;7.15;;;1.98;;
58553;SDS011;48119;53.218;6.576;2023-08-01T11:18:43;6.40;;;1.45;;
58553;SDS011;48119;53.218;6.576;2023-08-01T11:21:23;4.25;;;1.45;;
58553;SDS011;48119;53.218;6.576;2023-08-01T11:23:51;6.10;;;2.17;;
58553;SDS011;48119;53.218;6.576;2023-08-01T11:26:17;4.38;;;1.60;;
58553;SDS011;48119;53.218;6.576;2023-08-01T11:28:43;6.45;;;1.63;;
58553;SDS011;48119;53.218;6.576;2023-08-01T11:31:12;4.90;;;1.40;;
58553;SDS011;48119;53.218;6.576;2023-08-01T11:33:38;4.50;;;1.42;;
58553;SDS011;48119;53.218;6.576;2023-08-01T11:36:04;3.75;;;1.50;;
58553;SDS011;48119;53.218;6.576;2023-08-01T11:38:31;5.72;;;1.20;;
58553;SDS011;48119;53.218;6.576;2023-08-01T11:40:59;4.97;;;1.08;;
58553;SDS011;48119;53.218;6.576;2023-08-01T11:43:26;5.65;;;1.10;;
58553;SDS011;48119;53.218;6.576;2023-08-01T11:46:02;4.85;;;1.42;;
58553;SDS011;48119;53.218;6.576;2023-08-01T11:48:28;6.93;;;1.35;;
58553;SDS011;48119;53.218;6.576;2023-08-01T11:50:57;4.25;;;1.35;;
58553;SDS011;48119;53.218;6.576;2023-08-01T11:53:23;3.13;;;1.00;;
58553;SDS011;48119;53.218;6.576;2023-08-01T11:55:50;6.15;;;1.42;;
58553;SDS011;48119;53.218;6.576;2023-08-01T11:58:31;4.57;;;1.30;;
58553;SDS011;48119;53.218;6.576;2023-08-01T12:01:10;2.50;;;1.33;;
58553;SDS011;48119;53.218;6.576;2023-08-01T12:03:44;3.22;;;1.23;;
58553;SDS011;48119;53.218;6.576;2023-08-01T12:06:20;5.65;;;1.60;;
58553;SDS011;48119;53.218;6.576;2023-08-01T12:08:48;5.30;;;1.65;;
58553;SDS011;48119;53.218;6.576;2023-08-01T12:13:45;4.75;;;1.83;;
58553;SDS011;48119;53.218;6.576;2023-08-01T12:16:11;5.68;;;1.70;;
58553;SDS011;48119;53.218;6.576;2023-08-01T12:18:40;3.53;;;1.23;;
58553;SDS011;48119;53.218;6.576;2023-08-01T12:21:08;6.53;;;1.35;;
58553;SDS011;48119;53.218;6.576;2023-08-01T12:23:35;8.13;;;1.95;;
58553;SDS011;48119;53.218;6.576;2023-08-01T12:26:04;7.75;;;2.65;;
58553;SDS011;48119;53.218;6.576;2023-08-01T12:28:29;5.45;;;1.65;;
58553;SDS011;48119;53.218;6.576;2023-08-01T12:30:57;5.68;;;2.47;;
58553;SDS011;48119;53.218;6.576;2023-08-01T12:33:24;9.02;;;2.70;;
58553;SDS011;48119;53.218;6.576;2023-08-01T12:35:50;8.02;;;2.28;;
58553;SDS011;48119;53.218;6.576;2023-08-01T12:38:15;5.40;;;1.73;;
58553;SDS011;48119;53.218;6.576;2023-08-01T12:40:41;8.18;;;1.60;;
58553;SDS011;48119;53.218;6.576;2023-08-01T12:43:07;5.78;;;1.52;;
58553;SDS011;48119;53.218;6.576;2023-08-01T12:45:33;6.88;;;1.98;;
58553;SDS011;48119;53.218;6.576;2023-08-01T12:47:58;14.50;;;2.92;;
58553;SDS011;48119;53.218;6.576;2023-08-01T12:50:24;6.15;;;2.55;;
58553;SDS011;48119;53.218;6.576;2023-08-01T12:52:50;11.65;;;2.67;;
58553;SDS011;48119;53.218;6.576;2023-08-01T12:55:16;5.38;;;1.95;;
58553;SDS011;48119;53.218;6.576;2023-08-01T12:57:42;6.95;;;2.22;;
58553;SDS011;48119;53.218;6.576;2023-08-01T13:00:08;6.90;;;1.95;;
58553;SDS011;48119;53.218;6.576;2023-08-01T13:02:37;4.68;;;1.77;;
58553;SDS011;48119;53.218;6.576;2023-08-01T13:05:04;6.28;;;1.83;;
58553;SDS011;48119;53.218;6.576;2023-08-01T13:07:30;4.60;;;2.05;;
58553;SDS011;48119;53.218;6.576;2023-08-01T13:09:59;5.78;;;1.67;;
58553;SDS011;48119;53.218;6.576;2023-08-01T13:12:26;4.57;;;1.38;;
58553;SDS011;48119;53.218;6.576;2023-08-01T13:14:51;5.82;;;1.60;;
58553;SDS011;48119;53.218;6.576;2023-08-01T13:17:17;5.50;;;1.90;;
58553;SDS011;48119;53.218;6.576;2023-08-01T13:19:46;7.15;;;2.38;;
58553;SDS011;48119;53.218;6.576;2023-08-01T13:22:12;4.18;;;1.80;;
58553;SDS011;48119;53.218;6.576;2023-08-01T13:24:38;4.55;;;1.30;;
58553;SDS011;48119;53.218;6.576;2023-08-01T13:27:04;4.07;;;1.70;;
58553;SDS011;48119;53.218;6.576;2023-08-01T13:29:30;3.95;;;1.10;;
58553;SDS011;48119;53.218;6.576;2023-08-01T13:31:56;2.47;;;1.45;;
58553;SDS011;48119;53.218;6.576;2023-08-01T13:34:21;3.95;;;1.55;;
58553;SDS011;48119;53.218;6.576;2023-08-01T13:36:49;5.72;;;1.20;;
58553;SDS011;48119;53.218;6.576;2023-08-01T13:39:17;8.77;;;2.33;;
58553;SDS011;48119;53.218;6.576;2023-08-01T13:41:43;10.40;;;1.65;;
58553;SDS011;48119;53.218;6.576;2023-08-01T13:44:12;9.35;;;2.00;;
58553;SDS011;48119;53.218;6.576;2023-08-01T13:46:38;9.25;;;3.13;;
58553;SDS011;48119;53.218;6.576;2023-08-01T13:49:04;5.05;;;1.60;;
58553;SDS011;48119;53.218;6.576;2023-08-01T13:51:33;6.70;;;2.28;;
58553;SDS011;48119;53.218;6.576;2023-08-01T13:53:59;4.07;;;1.92;;
58553;SDS011;48119;53.218;6.576;2023-08-01T13:56:25;4.05;;;1.65;;
58553;SDS011;48119;53.218;6.576;2023-08-01T13:58:51;9.25;;;2.58;;
58553;SDS011;48119;53.218;6.576;2023-08-01T14:01:17;6.20;;;2.28;;
58553;SDS011;48119;53.218;6.576;2023-08-01T14:03:46;5.30;;;1.67;;
58553;SDS011;48119;53.218;6.576;2023-08-01T14:06:13;7.07;;;1.50;;
58553;SDS011;48119;53.218;6.576;2023-08-01T14:08:41;4.25;;;1.52;;
58553;SDS011;48119;53.218;6.576;2023-08-01T14:11:08;6.75;;;2.28;;
58553;SDS011;48119;53.218;6.576;2023-08-01T14:13:34;6.72;;;1.88;;
58553;SDS011;48119;53.218;6.576;2023-08-01T14:16:01;4.80;;;1.50;;
58553;SDS011;48119;53.218;6.576;2023-08-01T14:18:30;3.85;;;1.27;;
58553;SDS011;48119;53.218;6.576;2023-08-01T14:20:56;6.82;;;1.95;;
58553;SDS011;48119;53.218;6.576;2023-08-01T14:23:22;8.60;;;1.75;;
58553;SDS011;48119;53.218;6.576;2023-08-01T14:25:48;4.72;;;1.70;;
58553;SDS011;48119;53.218;6.576;2023-08-01T14:28:16;6.68;;;2.17;;
58553;SDS011;48119;53.218;6.576;2023-08-01T14:30:42;4.50;;;1.38;;
58553;SDS011;48119;53.218;6.576;2023-08-01T14:33:08;3.03;;;1.33;;
58553;SDS011;48119;53.218;6.576;2023-08-01T14:35:35;4.55;;;1.70;;
58553;SDS011;48119;53.218;6.576;2023-08-01T14:38:01;6.93;;;1.58;;
58553;SDS011;48119;53.218;6.576;2023-08-01T14:40:28;4.90;;;1.45;;
58553;SDS011;48119;53.218;6.576;2023-08-01T14:42:54;6.93;;;1.52;;
58553;SDS011;48119;53.218;6.576;2023-08-01T14:45:21;2.40;;;1.40;;
58553;SDS011;48119;53.218;6.576;2023-08-01T14:47:47;8.35;;;1.75;;
58553;SDS011;48119;53.218;6.576;2023-08-01T14:50:13;3.58;;;1.40;;